sensor_id;sensor_type;location;lat;lon;timestamp;P1;durP1;ratioP1;P2;durP2;ratioP2
22460;SDS011;11397;48.410;11.468;2022-12-18T00:03:12;5.55;;;5.35;;
22460;SDS011;11397;48.410;11.468;2022-12-18T00:08:14;5.95;;;5.75;;
22460;SDS011;11397;48.410;11.468;2022-12-18T00:13:16;6.50;;;6.30;;
22460;SDS011;11397;48.410;11.468;2022-12-18T00:18:19;5.60;;;5.40;;
22460;SDS011;11397;48.410;11.468;2022-12-18T00:23:21;5.65;;;5.45;;
22460;SDS011;11397;48.410;11.468;2022-12-18T00:28:22;5.57;;;5.38;;
22460;SDS011;11397;48.410;11.468;2022-12-18T00:33:26;5.55;;;5.35;;
22460;SDS011;11397;48.410;11.468;2022-12-18T00:38:27;6.35;;;6.15;;
22460;SDS011;11397;48.410;11.468;2022-12-18T00:43:29;6.28;;;6.07;;
22460;SDS011;11397;48.410;11.468;2022-12-18T00:48:34;5.80;;;5.60;;
22460;SDS011;11397;48.410;11.468;2022-12-18T00:53:36;5.47;;;5.28;;
22460;SDS011;11397;48.410;11.468;2022-12-18T00:58:38;5.88;;;5.68;;
22460;SDS011;11397;48.410;11.468;2022-12-18T01:03:41;6.60;;;6.40;;
22460;SDS011;11397;48.410;11.468;2022-12-18T01:08:43;6.22;;;6.03;;
22460;SDS011;11397;48.410;11.468;2022-12-18T01:13:46;5.82;;;5.63;;
22460;SDS011;11397;48.410;11.468;2022-12-18T01:18:51;5.95;;;5.75;;
22460;SDS011;11397;48.410;11.468;2022-12-18T01:23:54;6.18;;;5.97;;
22460;SDS011;11397;48.410;11.468;2022-12-18T01:28:57;5.70;;;5.50;;
22460;SDS011;11397;48.410;11.468;2022-12-18T01:34:01;6.05;;;5.85;;
22460;SDS011;11397;48.410;11.468;2022-12-18T01:39:03;5.95;;;5.75;;
22460;SDS011;11397;48.410;11.468;2022-12-18T01:49:23;6.13;;;5.93;;
22460;SDS011;11397;48.410;11.468;2022-12-18T01:54:28;6.20;;;6.00;;
22460;SDS011;11397;48.410;11.468;2022-12-18T01:59:30;6.25;;;6.05;;
22460;SDS011;11397;48.410;11.468;2022-12-18T02:04:34;6.47;;;6.28;;
22460;SDS011;11397;48.410;11.468;2022-12-18T02:09:36;6.45;;;6.25;;
22460;SDS011;11397;48.410;11.468;2022-12-18T02:14:43;6.45;;;6.25;;
22460;SDS011;11397;48.410;11.468;2022-12-18T02:19:55;7.22;;;7.03;;
22460;SDS011;11397;48.410;11.468;2022-12-18T02:25:05;6.80;;;6.60;;
22460;SDS011;11397;48.410;11.468;2022-12-18T02:30:14;6.38;;;6.18;;
22460;SDS011;11397;48.410;11.468;2022-12-18T02:35:16;6.43;;;6.22;;
22460;SDS011;11397;48.410;11.468;2022-12-18T02:40:22;6.97;;;6.78;;
22460;SDS011;11397;48.410;11.468;2022-12-18T02:45:26;6.80;;;6.60;;
22460;SDS011;11397;48.410;11.468;2022-12-18T02:50:30;6.40;;;6.20;;
22460;SDS011;11397;48.410;11.468;2022-12-18T02:55:35;6.47;;;6.28;;
22460;SDS011;11397;48.410;11.468;2022-12-18T03:00:47;6.65;;;6.45;;
22460;SDS011;11397;48.410;11.468;2022-12-18T03:05:53;6.65;;;6.45;;
22460;SDS011;11397;48.410;11.468;2022-12-18T03:10:58;5.90;;;5.70;;
22460;SDS011;11397;48.410;11.468;2022-12-18T03:16:04;6.18;;;5.97;;
22460;SDS011;11397;48.410;11.468;2022-12-18T03:21:07;6.47;;;6.28;;
22460;SDS011;11397;48.410;11.468;2022-12-18T03:26:12;7.57;;;7.28;;
22460;SDS011;11397;48.410;11.468;2022-12-18T03:31:16;7.07;;;6.88;;
22460;SDS011;11397;48.410;11.468;2022-12-18T03:36:19;6.63;;;6.43;;
22460;SDS011;11397;48.410;11.468;2022-12-18T03:41:23;6.45;;;6.25;;
22460;SDS011;11397;48.410;11.468;2022-12-18T03:46:52;6.40;;;6.20;;
22460;SDS011;11397;48.410;11.468;2022-12-18T03:51:59;6.00;;;5.80;;
22460;SDS011;11397;48.410;11.468;2022-12-18T03:57:04;6.75;;;6.55;;
22460;SDS011;11397;48.410;11.468;2022-12-18T04:02:10;7.03;;;6.82;;
22460;SDS011;11397;48.410;11.468;2022-12-18T04:07:13;6.97;;;6.78;;
22460;SDS011;11397;48.410;11.468;2022-12-18T04:12:17;7.25;;;7.05;;
22460;SDS011;11397;48.410;11.468;2022-12-18T04:17:22;6.70;;;6.50;;
22460;SDS011;11397;48.410;11.468;2022-12-18T04:22:24;6.63;;;6.43;;
22460;SDS011;11397;48.410;11.468;2022-12-18T04:27:32;6.53;;;6.32;;
22460;SDS011;11397;48.410;11.468;2022-12-18T04:32:35;7.13;;;6.93;;
22460;SDS011;11397;48.410;11.468;2022-12-18T04:37:37;6.70;;;6.50;;
22460;SDS011;11397;48.410;11.468;2022-12-18T04:42:39;6.60;;;6.40;;
22460;SDS011;11397;48.410;11.468;2022-12-18T04:47:42;7.47;;;7.18;;
22460;SDS011;11397;48.410;11.468;2022-12-18T04:52:44;7.05;;;6.85;;
22460;SDS011;11397;48.410;11.468;2022-12-18T04:57:47;6.80;;;6.60;;
22460;SDS011;11397;48.410;11.468;2022-12-18T05:02:50;7.45;;;7.15;;
22460;SDS011;11397;48.410;11.468;2022-12-18T05:07:52;7.03;;;6.82;;
22460;SDS011;11397;48.410;11.468;2022-12-18T05:12:54;7.15;;;6.95;;
22460;SDS011;11397;48.410;11.468;2022-12-18T05:18:04;6.82;;;6.63;;
22460;SDS011;11397;48.410;11.468;2022-12-18T05:23:06;7.68;;;7.38;;
22460;SDS011;11397;48.410;11.468;2022-12-18T05:28:08;7.53;;;7.22;;
22460;SDS011;11397;48.410;11.468;2022-12-18T05:33:11;7.65;;;7.35;;
22460;SDS011;11397;48.410;11.468;2022-12-18T05:38:13;7.93;;;7.63;;
22460;SDS011;11397;48.410;11.468;2022-12-18T05:43:14;7.95;;;7.65;;
22460;SDS011;11397;48.410;11.468;2022-12-18T05:48:17;7.13;;;6.93;;
22460;SDS011;11397;48.410;11.468;2022-12-18T05:53:19;6.90;;;6.70;;
22460;SDS011;11397;48.410;11.468;2022-12-18T05:58:22;7.57;;;7.28;;
22460;SDS011;11397;48.410;11.468;2022-12-18T06:03:25;7.22;;;7.03;;
22460;SDS011;11397;48.410;11.468;2022-12-18T06:08:26;6.80;;;6.60;;
22460;SDS011;11397;48.410;11.468;2022-12-18T06:13:27;7.05;;;6.85;;
22460;SDS011;11397;48.410;11.468;2022-12-18T06:18:31;7.18;;;6.97;;
22460;SDS011;11397;48.410;11.468;2022-12-18T06:23:32;7.32;;;7.07;;
22460;SDS011;11397;48.410;11.468;2022-12-18T06:28:34;7.05;;;6.85;;
22460;SDS011;11397;48.410;11.468;2022-12-18T06:33:37;7.10;;;6.90;;
22460;SDS011;11397;48.410;11.468;2022-12-18T06:38:40;6.97;;;6.78;;
22460;SDS011;11397;48.410;11.468;2022-12-18T06:43:42;6.22;;;6.03;;
22460;SDS011;11397;48.410;11.468;2022-12-18T06:48:47;6.40;;;6.20;;
22460;SDS011;11397;48.410;11.468;2022-12-18T06:53:49;6.45;;;6.25;;
22460;SDS011;11397;48.410;11.468;2022-12-18T06:58:51;5.75;;;5.55;;
22460;SDS011;11397;48.410;11.468;2022-12-18T07:03:54;5.70;;;5.50;;
22460;SDS011;11397;48.410;11.468;2022-12-18T07:08:56;5.53;;;5.32;;
22460;SDS011;11397;48.410;11.468;2022-12-18T07:13:57;5.85;;;5.65;;
22460;SDS011;11397;48.410;11.468;2022-12-18T07:19:03;5.65;;;5.45;;
22460;SDS011;11397;48.410;11.468;2022-12-18T07:24:05;5.50;;;5.30;;
22460;SDS011;11397;48.410;11.468;2022-12-18T07:29:07;5.20;;;5.00;;
22460;SDS011;11397;48.410;11.468;2022-12-18T07:34:11;5.47;;;5.28;;
22460;SDS011;11397;48.410;11.468;2022-12-18T07:39:13;5.20;;;5.00;;
22460;SDS011;11397;48.410;11.468;2022-12-18T07:44:14;4.90;;;4.80;;
22460;SDS011;11397;48.410;11.468;2022-12-18T07:49:17;5.30;;;5.10;;
22460;SDS011;11397;48.410;11.468;2022-12-18T07:54:19;5.00;;;4.90;;
22460;SDS011;11397;48.410;11.468;2022-12-18T07:59:20;4.97;;;4.85;;
22460;SDS011;11397;48.410;11.468;2022-12-18T08:04:23;4.90;;;4.80;;
22460;SDS011;11397;48.410;11.468;2022-12-18T08:09:25;5.22;;;5.03;;
22460;SDS011;11397;48.410;11.468;2022-12-18T08:14:26;5.30;;;5.10;;
22460;SDS011;11397;48.410;11.468;2022-12-18T08:19:29;5.35;;;5.15;;
22460;SDS011;11397;48.410;11.468;2022-12-18T08:24:31;4.78;;;4.68;;
22460;SDS011;11397;48.410;11.468;2022-12-18T08:29:32;4.50;;;4.40;;
22460;SDS011;11397;48.410;11.468;2022-12-18T08:34:35;5.13;;;4.95;;
22460;SDS011;11397;48.410;11.468;2022-12-18T08:39:37;4.97;;;4.85;;
22460;SDS011;11397;48.410;11.468;2022-12-18T08:44:39;5.25;;;5.05;;
22460;SDS011;11397;48.410;11.468;2022-12-18T08:49:42;4.65;;;4.55;;
22460;SDS011;11397;48.410;11.468;2022-12-18T08:54:44;4.60;;;4.50;;
22460;SDS011;11397;48.410;11.468;2022-12-18T08:59:46;5.35;;;5.15;;
22460;SDS011;11397;48.410;11.468;2022-12-18T09:04:49;4.30;;;4.20;;
22460;SDS011;11397;48.410;11.468;2022-12-18T09:09:51;4.32;;;4.22;;
22460;SDS011;11397;48.410;11.468;2022-12-18T09:14:53;4.63;;;4.53;;
22460;SDS011;11397;48.410;11.468;2022-12-18T09:19:57;4.88;;;4.78;;
22460;SDS011;11397;48.410;11.468;2022-12-18T09:24:59;5.25;;;5.05;;
22460;SDS011;11397;48.410;11.468;2022-12-18T09:30:01;5.15;;;5.00;;
22460;SDS011;11397;48.410;11.468;2022-12-18T09:35:05;5.60;;;5.40;;
22460;SDS011;11397;48.410;11.468;2022-12-18T09:40:09;5.63;;;5.43;;
22460;SDS011;11397;48.410;11.468;2022-12-18T09:45:14;5.75;;;5.55;;
22460;SDS011;11397;48.410;11.468;2022-12-18T09:50:19;5.50;;;5.30;;
22460;SDS011;11397;48.410;11.468;2022-12-18T09:55:24;5.50;;;5.30;;
22460;SDS011;11397;48.410;11.468;2022-12-18T10:00:28;5.03;;;4.88;;
22460;SDS011;11397;48.410;11.468;2022-12-18T10:05:33;4.80;;;4.70;;
22460;SDS011;11397;48.410;11.468;2022-12-18T10:10:38;4.80;;;4.70;;
22460;SDS011;11397;48.410;11.468;2022-12-18T10:15:45;4.82;;;4.72;;
22460;SDS011;11397;48.410;11.468;2022-12-18T10:20:52;4.85;;;4.75;;
22460;SDS011;11397;48.410;11.468;2022-12-18T10:25:57;5.30;;;5.10;;
22460;SDS011;11397;48.410;11.468;2022-12-18T10:31:02;4.82;;;4.72;;
22460;SDS011;11397;48.410;11.468;2022-12-18T10:36:05;5.10;;;4.90;;
22460;SDS011;11397;48.410;11.468;2022-12-18T10:41:22;5.38;;;5.18;;
22460;SDS011;11397;48.410;11.468;2022-12-18T10:46:26;5.55;;;5.35;;
22460;SDS011;11397;48.410;11.468;2022-12-18T10:51:30;4.75;;;4.65;;
22460;SDS011;11397;48.410;11.468;2022-12-18T10:56:34;5.50;;;5.30;;
22460;SDS011;11397;48.410;11.468;2022-12-18T11:01:47;5.03;;;4.88;;
22460;SDS011;11397;48.410;11.468;2022-12-18T11:06:54;4.75;;;4.65;;
22460;SDS011;11397;48.410;11.468;2022-12-18T11:11:57;4.50;;;4.40;;
22460;SDS011;11397;48.410;11.468;2022-12-18T11:16:59;4.93;;;4.82;;
22460;SDS011;11397;48.410;11.468;2022-12-18T11:22:03;4.80;;;4.70;;
22460;SDS011;11397;48.410;11.468;2022-12-18T11:27:18;5.05;;;4.88;;
22460;SDS011;11397;48.410;11.468;2022-12-18T11:37:38;4.40;;;4.30;;
22460;SDS011;11397;48.410;11.468;2022-12-18T11:42:41;4.85;;;4.75;;
22460;SDS011;11397;48.410;11.468;2022-12-18T11:47:47;4.82;;;4.72;;
22460;SDS011;11397;48.410;11.468;2022-12-18T11:52:52;4.78;;;4.68;;
22460;SDS011;11397;48.410;11.468;2022-12-18T11:57:55;5.30;;;5.10;;
22460;SDS011;11397;48.410;11.468;2022-12-18T12:03:18;5.28;;;5.07;;
22460;SDS011;11397;48.410;11.468;2022-12-18T12:08:25;4.70;;;4.60;;
22460;SDS011;11397;48.410;11.468;2022-12-18T12:13:34;4.80;;;4.70;;
22460;SDS011;11397;48.410;11.468;2022-12-18T12:18:40;4.80;;;4.70;;
22460;SDS011;11397;48.410;11.468;2022-12-18T12:23:49;4.70;;;4.60;;
22460;SDS011;11397;48.410;11.468;2022-12-18T12:28:58;4.70;;;4.60;;
22460;SDS011;11397;48.410;11.468;2022-12-18T12:34:04;4.75;;;4.65;;
22460;SDS011;11397;48.410;11.468;2022-12-18T12:39:10;5.20;;;5.00;;
22460;SDS011;11397;48.410;11.468;2022-12-18T12:44:14;5.47;;;5.28;;
22460;SDS011;11397;48.410;11.468;2022-12-18T12:49:18;5.00;;;4.88;;
22460;SDS011;11397;48.410;11.468;2022-12-18T12:54:25;5.30;;;5.10;;
22460;SDS011;11397;48.410;11.468;2022-12-18T12:59:30;5.22;;;5.03;;
22460;SDS011;11397;48.410;11.468;2022-12-18T13:04:33;5.78;;;5.57;;
22460;SDS011;11397;48.410;11.468;2022-12-18T13:10:10;5.80;;;5.60;;
22460;SDS011;11397;48.410;11.468;2022-12-18T13:15:11;5.78;;;5.57;;
22460;SDS011;11397;48.410;11.468;2022-12-18T13:20:14;6.00;;;5.80;;
22460;SDS011;11397;48.410;11.468;2022-12-18T13:25:31;5.63;;;5.43;;
22460;SDS011;11397;48.410;11.468;2022-12-18T13:30:46;5.60;;;5.40;;
22460;SDS011;11397;48.410;11.468;2022-12-18T13:35:51;5.30;;;5.10;;
22460;SDS011;11397;48.410;11.468;2022-12-18T13:40:56;5.70;;;5.50;;
22460;SDS011;11397;48.410;11.468;2022-12-18T13:45:59;5.10;;;4.95;;
22460;SDS011;11397;48.410;11.468;2022-12-18T13:51:03;5.57;;;5.38;;
22460;SDS011;11397;48.410;11.468;2022-12-18T13:56:06;5.50;;;5.30;;
22460;SDS011;11397;48.410;11.468;2022-12-18T14:01:15;6.00;;;5.80;;
22460;SDS011;11397;48.410;11.468;2022-12-18T14:06:22;5.82;;;5.63;;
22460;SDS011;11397;48.410;11.468;2022-12-18T14:11:26;5.30;;;5.10;;
22460;SDS011;11397;48.410;11.468;2022-12-18T14:16:27;5.55;;;5.35;;
22460;SDS011;11397;48.410;11.468;2022-12-18T14:21:29;5.45;;;5.25;;
22460;SDS011;11397;48.410;11.468;2022-12-18T14:26:34;5.88;;;5.68;;
22460;SDS011;11397;48.410;11.468;2022-12-18T14:31:36;5.63;;;5.43;;
22460;SDS011;11397;48.410;11.468;2022-12-18T14:36:37;5.05;;;4.93;;
22460;SDS011;11397;48.410;11.468;2022-12-18T14:41:41;5.72;;;5.53;;
22460;SDS011;11397;48.410;11.468;2022-12-18T14:46:43;5.57;;;5.38;;
22460;SDS011;11397;48.410;11.468;2022-12-18T14:51:47;5.82;;;5.63;;
22460;SDS011;11397;48.410;11.468;2022-12-18T14:56:51;5.13;;;4.97;;
22460;SDS011;11397;48.410;11.468;2022-12-18T15:01:57;5.50;;;5.30;;
22460;SDS011;11397;48.410;11.468;2022-12-18T15:07:04;6.50;;;6.30;;
22460;SDS011;11397;48.410;11.468;2022-12-18T15:12:16;5.95;;;5.75;;
22460;SDS011;11397;48.410;11.468;2022-12-18T15:17:21;5.55;;;5.35;;
22460;SDS011;11397;48.410;11.468;2022-12-18T15:22:25;11.30;;;10.90;;
22460;SDS011;11397;48.410;11.468;2022-12-18T15:27:29;5.72;;;5.53;;
22460;SDS011;11397;48.410;11.468;2022-12-18T15:32:32;6.05;;;5.85;;
22460;SDS011;11397;48.410;11.468;2022-12-18T15:37:33;5.53;;;5.32;;
22460;SDS011;11397;48.410;11.468;2022-12-18T15:42:36;5.43;;;5.22;;
22460;SDS011;11397;48.410;11.468;2022-12-18T15:47:56;5.53;;;5.32;;
22460;SDS011;11397;48.410;11.468;2022-12-18T15:52:57;5.40;;;5.20;;
22460;SDS011;11397;48.410;11.468;2022-12-18T15:58:00;5.25;;;5.05;;
22460;SDS011;11397;48.410;11.468;2022-12-18T16:03:02;5.68;;;5.47;;
22460;SDS011;11397;48.410;11.468;2022-12-18T16:08:04;6.70;;;6.50;;
22460;SDS011;11397;48.410;11.468;2022-12-18T16:13:08;5.50;;;5.30;;
22460;SDS011;11397;48.410;11.468;2022-12-18T16:18:10;6.07;;;5.88;;
22460;SDS011;11397;48.410;11.468;2022-12-18T16:23:12;6.00;;;5.80;;
22460;SDS011;11397;48.410;11.468;2022-12-18T16:28:15;5.78;;;5.57;;
22460;SDS011;11397;48.410;11.468;2022-12-18T16:33:17;6.30;;;6.10;;
22460;SDS011;11397;48.410;11.468;2022-12-18T16:38:18;6.93;;;6.72;;
22460;SDS011;11397;48.410;11.468;2022-12-18T16:43:21;6.68;;;6.47;;
22460;SDS011;11397;48.410;11.468;2022-12-18T16:48:23;6.72;;;6.53;;
22460;SDS011;11397;48.410;11.468;2022-12-18T16:53:25;5.95;;;5.75;;
22460;SDS011;11397;48.410;11.468;2022-12-18T16:58:30;6.75;;;6.55;;
22460;SDS011;11397;48.410;11.468;2022-12-18T17:03:32;7.32;;;7.05;;
22460;SDS011;11397;48.410;11.468;2022-12-18T17:08:34;6.43;;;6.22;;
22460;SDS011;11397;48.410;11.468;2022-12-18T17:13:38;6.63;;;6.43;;
22460;SDS011;11397;48.410;11.468;2022-12-18T17:18:40;7.32;;;7.07;;
22460;SDS011;11397;48.410;11.468;2022-12-18T17:23:42;7.05;;;6.85;;
22460;SDS011;11397;48.410;11.468;2022-12-18T17:28:45;7.65;;;7.35;;
22460;SDS011;11397;48.410;11.468;2022-12-18T17:33:47;6.93;;;6.72;;
22460;SDS011;11397;48.410;11.468;2022-12-18T17:38:49;6.85;;;6.65;;
22460;SDS011;11397;48.410;11.468;2022-12-18T17:43:55;7.15;;;6.95;;
22460;SDS011;11397;48.410;11.468;2022-12-18T17:48:57;6.53;;;6.32;;
22460;SDS011;11397;48.410;11.468;2022-12-18T17:53:59;7.10;;;6.90;;
22460;SDS011;11397;48.410;11.468;2022-12-18T17:59:02;6.30;;;6.10;;
22460;SDS011;11397;48.410;11.468;2022-12-18T18:04:03;6.68;;;6.47;;
22460;SDS011;11397;48.410;11.468;2022-12-18T18:09:06;6.70;;;6.50;;
22460;SDS011;11397;48.410;11.468;2022-12-18T18:14:12;7.35;;;7.07;;
22460;SDS011;11397;48.410;11.468;2022-12-18T18:19:15;7.30;;;7.05;;
22460;SDS011;11397;48.410;11.468;2022-12-18T18:24:17;6.55;;;6.35;;
22460;SDS011;11397;48.410;11.468;2022-12-18T18:29:22;6.68;;;6.47;;
22460;SDS011;11397;48.410;11.468;2022-12-18T18:34:24;6.82;;;6.63;;
22460;SDS011;11397;48.410;11.468;2022-12-18T18:39:26;6.50;;;6.30;;
22460;SDS011;11397;48.410;11.468;2022-12-18T18:44:29;6.32;;;6.13;;
22460;SDS011;11397;48.410;11.468;2022-12-18T18:49:31;7.13;;;6.93;;
22460;SDS011;11397;48.410;11.468;2022-12-18T18:54:33;6.40;;;6.20;;
22460;SDS011;11397;48.410;11.468;2022-12-18T18:59:36;7.03;;;6.82;;
22460;SDS011;11397;48.410;11.468;2022-12-18T19:04:38;6.97;;;6.78;;
22460;SDS011;11397;48.410;11.468;2022-12-18T19:09:42;6.45;;;6.25;;
22460;SDS011;11397;48.410;11.468;2022-12-18T19:14:45;6.07;;;5.88;;
22460;SDS011;11397;48.410;11.468;2022-12-18T19:19:49;6.53;;;6.32;;
22460;SDS011;11397;48.410;11.468;2022-12-18T19:24:51;6.78;;;6.57;;
22460;SDS011;11397;48.410;11.468;2022-12-18T19:29:54;7.13;;;6.93;;
22460;SDS011;11397;48.410;11.468;2022-12-18T19:34:56;6.47;;;6.28;;
22460;SDS011;11397;48.410;11.468;2022-12-18T19:39:58;6.50;;;6.30;;
22460;SDS011;11397;48.410;11.468;2022-12-18T19:45:01;6.40;;;6.20;;
22460;SDS011;11397;48.410;11.468;2022-12-18T19:50:04;6.10;;;5.90;;
22460;SDS011;11397;48.410;11.468;2022-12-18T19:55:06;6.47;;;6.28;;
22460;SDS011;11397;48.410;11.468;2022-12-18T20:00:10;6.53;;;6.32;;
22460;SDS011;11397;48.410;11.468;2022-12-18T20:05:12;6.18;;;5.97;;
22460;SDS011;11397;48.410;11.468;2022-12-18T20:10:14;6.43;;;6.22;;
22460;SDS011;11397;48.410;11.468;2022-12-18T20:15:18;6.07;;;5.88;;
22460;SDS011;11397;48.410;11.468;2022-12-18T20:20:19;6.20;;;6.00;;
22460;SDS011;11397;48.410;11.468;2022-12-18T20:25:21;6.20;;;6.00;;
22460;SDS011;11397;48.410;11.468;2022-12-18T20:30:24;7.20;;;6.97;;
22460;SDS011;11397;48.410;11.468;2022-12-18T20:35:26;6.95;;;6.75;;
22460;SDS011;11397;48.410;11.468;2022-12-18T20:40:30;7.30;;;7.05;;
22460;SDS011;11397;48.410;11.468;2022-12-18T20:45:33;6.80;;;6.60;;
22460;SDS011;11397;48.410;11.468;2022-12-18T20:50:36;7.18;;;6.95;;
22460;SDS011;11397;48.410;11.468;2022-12-18T20:55:40;6.63;;;6.43;;
22460;SDS011;11397;48.410;11.468;2022-12-18T21:00:43;7.13;;;6.93;;
22460;SDS011;11397;48.410;11.468;2022-12-18T21:05:44;6.82;;;6.63;;
22460;SDS011;11397;48.410;11.468;2022-12-18T21:10:46;6.43;;;6.22;;
22460;SDS011;11397;48.410;11.468;2022-12-18T21:15:49;6.30;;;6.10;;
22460;SDS011;11397;48.410;11.468;2022-12-18T21:20:53;7.43;;;7.15;;
22460;SDS011;11397;48.410;11.468;2022-12-18T21:25:56;6.90;;;6.70;;
22460;SDS011;11397;48.410;11.468;2022-12-18T21:31:16;6.10;;;5.90;;
22460;SDS011;11397;48.410;11.468;2022-12-18T21:36:18;6.22;;;6.03;;
22460;SDS011;11397;48.410;11.468;2022-12-18T21:41:19;6.07;;;5.88;;
22460;SDS011;11397;48.410;11.468;2022-12-18T21:46:41;6.45;;;6.25;;
22460;SDS011;11397;48.410;11.468;2022-12-18T21:51:43;6.32;;;6.13;;
22460;SDS011;11397;48.410;11.468;2022-12-18T21:56:46;6.88;;;6.68;;
22460;SDS011;11397;48.410;11.468;2022-12-18T22:01:49;7.68;;;7.38;;
22460;SDS011;11397;48.410;11.468;2022-12-18T22:06:51;6.90;;;6.70;;
22460;SDS011;11397;48.410;11.468;2022-12-18T22:11:53;6.63;;;6.43;;
22460;SDS011;11397;48.410;11.468;2022-12-18T22:16:56;6.82;;;6.63;;
22460;SDS011;11397;48.410;11.468;2022-12-18T22:21:58;6.88;;;6.68;;
22460;SDS011;11397;48.410;11.468;2022-12-18T22:27:00;6.78;;;6.57;;
22460;SDS011;11397;48.410;11.468;2022-12-18T22:32:04;6.30;;;6.10;;
22460;SDS011;11397;48.410;11.468;2022-12-18T22:37:05;6.43;;;6.22;;
22460;SDS011;11397;48.410;11.468;2022-12-18T22:42:07;6.72;;;6.53;;
22460;SDS011;11397;48.410;11.468;2022-12-18T22:47:10;6.53;;;6.32;;
22460;SDS011;11397;48.410;11.468;2022-12-18T22:52:14;6.55;;;6.35;;
22460;SDS011;11397;48.410;11.468;2022-12-18T22:57:16;6.30;;;6.10;;
22460;SDS011;11397;48.410;11.468;2022-12-18T23:02:19;7.13;;;6.93;;
22460;SDS011;11397;48.410;11.468;2022-12-18T23:07:20;6.72;;;6.53;;
22460;SDS011;11397;48.410;11.468;2022-12-18T23:12:22;6.55;;;6.35;;
22460;SDS011;11397;48.410;11.468;2022-12-18T23:17:24;7.28;;;7.05;;
22460;SDS011;11397;48.410;11.468;2022-12-18T23:22:28;6.85;;;6.65;;
22460;SDS011;11397;48.410;11.468;2022-12-18T23:27:29;6.18;;;5.97;;
22460;SDS011;11397;48.410;11.468;2022-12-18T23:32:35;6.97;;;6.78;;
22460;SDS011;11397;48.410;11.468;2022-12-18T23:37:37;7.43;;;7.13;;
22460;SDS011;11397;48.410;11.468;2022-12-18T23:42:38;6.60;;;6.40;;
22460;SDS011;11397;48.410;11.468;2022-12-18T23:47:42;6.85;;;6.65;;
22460;SDS011;11397;48.410;11.468;2022-12-18T23:52:43;6.85;;;6.65;;
22460;SDS011;11397;48.410;11.468;2022-12-18T23:57:45;6.40;;;6.20;;
